Chicken, Alaska
Current Conditions -  °F | °C
As of 11:53 AM on Saturday 22 Nov 2014 (Local Time) from PAEG Reporting Station
Overcast Overcast  
Wind Chill: -4°   Ceiling: 5000
Heat Index: -4°   Visibility: 10mi
Dew Point: -10°   Wind: 0mph
Humidity: 76%   Direction: NA
Pressure: 29.59"   Gusts: NA
Location:  64.07°N, 141.94°W
Report Text: PAEG 222053Z AUTO 00000KT 10SM OVC050 M20/M23 A2959 RMK AO2 SLP050 T12001233 51013 TSNO $
Loading
Personal Weather Stations






























Interactive Weather Map New forecast layout! Learn more

10-Day Weather Forecast

Advertisements
Track Severe Weather on mobile